createdAt,value
2023-01-22T00:01:43.907Z,2.60
2023-01-22T00:04:13.056Z,2.60
2023-01-22T00:06:41.599Z,2.60
2023-01-22T00:09:10.378Z,2.60
2023-01-22T00:11:38.962Z,2.60
2023-01-22T00:14:09.062Z,2.60
2023-01-22T00:16:37.769Z,2.60
2023-01-22T00:19:07.054Z,2.60
2023-01-22T00:21:36.170Z,2.60
2023-01-22T00:24:05.982Z,2.60
2023-01-22T00:26:34.872Z,2.60
2023-01-22T00:29:04.724Z,2.60
2023-01-22T00:31:33.743Z,2.60
2023-01-22T00:34:02.672Z,2.60
2023-01-22T00:36:33.307Z,2.60
2023-01-22T00:39:02.096Z,2.60
2023-01-22T00:41:30.786Z,2.60
2023-01-22T00:43:59.911Z,2.60
2023-01-22T00:46:28.998Z,2.60
2023-01-22T00:48:57.560Z,2.60
2023-01-22T00:51:26.688Z,2.62
2023-01-22T00:53:56.930Z,2.60
2023-01-22T00:56:25.564Z,2.60
2023-01-22T00:58:55.457Z,2.60
2023-01-22T01:01:25.519Z,2.60
2023-01-22T01:03:55.150Z,2.60
2023-01-22T01:06:24.407Z,2.60
2023-01-22T01:08:53.197Z,2.60
2023-01-22T01:11:26.517Z,2.60
2023-01-22T01:13:55.082Z,2.60
2023-01-22T01:16:30.936Z,2.60
2023-01-22T01:19:04.065Z,2.60
2023-01-22T01:21:33.719Z,2.60
2023-01-22T01:24:02.902Z,2.60
2023-01-22T01:26:31.930Z,2.60
2023-01-22T01:29:00.722Z,2.60
2023-01-22T01:31:29.550Z,2.60
2023-01-22T01:33:59.059Z,2.60
2023-01-22T01:36:47.292Z,2.54
2023-01-22T01:39:17.193Z,2.50
2023-01-22T01:41:45.857Z,2.50
2023-01-22T01:44:21.985Z,2.52
2023-01-22T01:47:06.207Z,2.50
2023-01-22T01:50:00.974Z,2.50
2023-01-22T01:52:29.839Z,2.54
2023-01-22T01:54:58.864Z,2.52
2023-01-22T01:57:31.432Z,2.60
2023-01-22T02:00:01.761Z,2.60
2023-01-22T02:02:30.246Z,2.60
2023-01-22T02:04:59.464Z,2.60
2023-01-22T02:07:29.461Z,2.60
2023-01-22T02:09:58.148Z,2.60
2023-01-22T02:12:26.781Z,2.62
2023-01-22T02:14:55.927Z,2.60
2023-01-22T02:17:24.512Z,2.66
2023-01-22T02:19:53.409Z,2.66
2023-01-22T02:22:25.768Z,2.64
2023-01-22T02:24:54.976Z,2.60
2023-01-22T02:27:24.378Z,2.64
2023-01-22T02:29:53.078Z,2.60
2023-01-22T02:32:22.367Z,2.60
2023-01-22T02:34:50.953Z,2.60
2023-01-22T02:37:19.758Z,2.60
2023-01-22T02:39:49.656Z,2.60
2023-01-22T02:42:19.684Z,2.60
2023-01-22T02:44:50.411Z,2.60
2023-01-22T02:47:19.815Z,2.60
2023-01-22T02:49:49.317Z,2.60
2023-01-22T02:52:18.313Z,2.62
2023-01-22T02:54:47.635Z,2.60
2023-01-22T02:57:16.403Z,2.62
2023-01-22T02:59:46.546Z,2.60
2023-01-22T03:02:15.659Z,2.60
2023-01-22T03:04:46.967Z,2.60
2023-01-22T03:07:15.450Z,2.60
2023-01-22T03:09:45.990Z,2.62
2023-01-22T03:12:14.565Z,2.62
2023-01-22T03:15:01.905Z,2.68
2023-01-22T03:17:49.422Z,2.70
2023-01-22T03:20:37.355Z,2.70
2023-01-22T03:23:06.044Z,2.70
2023-01-22T03:25:35.138Z,2.70
2023-01-22T03:28:18.906Z,2.70
2023-01-22T03:30:53.766Z,2.70
2023-01-22T03:33:22.603Z,2.70
2023-01-22T03:35:51.504Z,2.70
2023-01-22T03:38:22.123Z,2.64
2023-01-22T03:40:50.814Z,2.70
2023-01-22T03:43:20.635Z,2.70
2023-01-22T03:45:49.746Z,2.70
2023-01-22T03:48:21.275Z,2.70
2023-01-22T03:50:50.695Z,2.70
2023-01-22T03:53:19.369Z,2.68
2023-01-22T03:56:01.019Z,2.64
2023-01-22T03:58:30.767Z,2.70
2023-01-22T04:01:09.451Z,2.70
2023-01-22T04:03:38.384Z,2.68
2023-01-22T04:06:09.464Z,2.60
2023-01-22T04:08:40.877Z,2.62
2023-01-22T04:11:10.486Z,2.62
2023-01-22T04:13:42.058Z,2.60
2023-01-22T04:16:13.046Z,2.60
2023-01-22T04:19:15.100Z,2.62
2023-01-22T04:21:50.084Z,2.70
2023-01-22T04:24:20.307Z,2.64
2023-01-22T04:26:49.710Z,2.70
2023-01-22T04:29:21.375Z,2.68
2023-01-22T04:31:50.675Z,2.60
2023-01-22T04:34:55.607Z,2.62
2023-01-22T04:37:36.889Z,2.60
2023-01-22T04:40:06.904Z,2.60
2023-01-22T04:42:38.459Z,2.66
2023-01-22T04:45:08.349Z,2.70
2023-01-22T04:47:44.712Z,2.70
2023-01-22T04:50:20.880Z,2.70
2023-01-22T04:52:54.842Z,2.64
2023-01-22T04:55:24.578Z,2.66
2023-01-22T04:58:01.370Z,2.66
2023-01-22T05:00:31.843Z,2.70
2023-01-22T05:03:04.776Z,2.70
2023-01-22T05:05:34.534Z,2.70
2023-01-22T05:08:04.140Z,2.62
2023-01-22T05:10:34.876Z,2.62
2023-01-22T05:13:07.207Z,2.60
2023-01-22T05:15:36.278Z,2.60
2023-01-22T05:18:09.845Z,2.60
2023-01-22T05:20:40.986Z,2.60
2023-01-22T05:23:10.904Z,2.60
2023-01-22T05:25:39.445Z,2.64
2023-01-22T05:28:08.378Z,2.68
2023-01-22T05:30:55.238Z,2.66
2023-01-22T05:33:41.325Z,2.70
2023-01-22T05:36:14.887Z,2.70
2023-01-22T05:38:44.193Z,2.70
2023-01-22T05:41:13.079Z,2.70
2023-01-22T05:43:42.487Z,2.70
2023-01-22T05:46:17.241Z,2.64
2023-01-22T05:49:06.998Z,2.66
2023-01-22T05:51:36.011Z,2.70
2023-01-22T05:54:04.948Z,2.70
2023-01-22T05:56:36.128Z,2.70
2023-01-22T05:59:05.121Z,2.66
2023-01-22T06:01:33.808Z,2.62
2023-01-22T06:04:02.503Z,2.62
2023-01-22T06:06:31.194Z,2.60
2023-01-22T06:09:00.108Z,2.64
2023-01-22T06:11:33.021Z,2.68
2023-01-22T06:14:01.800Z,2.68
2023-01-22T06:16:30.433Z,2.70
2023-01-22T06:19:28.929Z,2.70
2023-01-22T06:21:58.016Z,2.70
2023-01-22T06:24:39.106Z,2.70
2023-01-22T06:27:08.803Z,2.70
2023-01-22T06:29:48.656Z,2.70
2023-01-22T06:32:17.850Z,2.70
2023-01-22T06:34:46.742Z,2.72
2023-01-22T06:37:15.326Z,2.76
2023-01-22T06:39:44.218Z,2.80
2023-01-22T06:42:28.679Z,2.80
2023-01-22T06:44:58.079Z,2.76
2023-01-22T06:47:29.239Z,2.76
2023-01-22T06:49:58.015Z,2.70
2023-01-22T06:52:26.669Z,2.70
2023-01-22T06:54:55.391Z,2.80
2023-01-22T06:57:26.428Z,2.78
2023-01-22T06:59:55.114Z,2.70
2023-01-22T07:02:23.944Z,2.70
2023-01-22T07:04:52.703Z,2.70
2023-01-22T07:07:21.399Z,2.70
2023-01-22T07:09:50.173Z,2.70
2023-01-22T07:12:18.753Z,2.70
2023-01-22T07:14:47.441Z,2.70
2023-01-22T07:17:15.924Z,2.70
2023-01-22T07:19:44.618Z,2.70
2023-01-22T07:22:13.197Z,2.70
2023-01-22T07:24:41.782Z,2.70
2023-01-22T07:27:10.578Z,2.70
2023-01-22T07:29:39.259Z,2.70
2023-01-22T07:32:08.047Z,2.70
2023-01-22T07:34:37.760Z,2.70
2023-01-22T07:37:06.240Z,2.70
2023-01-22T07:39:35.956Z,2.70
2023-01-22T07:42:04.635Z,2.80
2023-01-22T07:44:33.322Z,2.80
2023-01-22T07:47:02.122Z,2.80
2023-01-22T07:49:31.007Z,2.80
2023-01-22T07:51:59.594Z,2.80
2023-01-22T07:54:28.284Z,2.80
2023-01-22T07:56:56.965Z,2.80
2023-01-22T07:59:25.653Z,2.80
2023-01-22T08:01:57.484Z,2.80
2023-01-22T08:04:26.094Z,2.80
2023-01-22T08:06:54.998Z,2.80
2023-01-22T08:09:25.962Z,2.80
2023-01-22T08:11:54.617Z,2.80
2023-01-22T08:14:23.298Z,2.82
2023-01-22T08:16:51.893Z,2.90
2023-01-22T08:19:20.673Z,2.90
2023-01-22T08:21:49.155Z,2.90
2023-01-22T08:24:18.254Z,2.90
2023-01-22T08:26:46.879Z,2.90
2023-01-22T08:29:15.626Z,2.90
2023-01-22T08:31:44.323Z,2.90
2023-01-22T08:34:13.303Z,2.90
2023-01-22T08:36:42.302Z,2.90
2023-01-22T08:39:11.672Z,2.98
2023-01-22T08:41:41.791Z,3.00
2023-01-22T08:44:14.023Z,2.90
2023-01-22T08:46:42.471Z,2.98
2023-01-22T08:49:11.264Z,3.00
2023-01-22T08:51:39.845Z,3.00
2023-01-22T08:54:08.536Z,3.00
2023-01-22T08:56:37.020Z,3.00
2023-01-22T08:59:06.901Z,3.00
2023-01-22T09:01:35.720Z,3.00
2023-01-22T09:04:08.533Z,3.00
2023-01-22T09:06:39.326Z,3.00
2023-01-22T09:09:08.421Z,3.00
2023-01-22T09:11:37.023Z,3.00
2023-01-22T09:14:08.532Z,3.00
2023-01-22T09:16:37.840Z,3.10
2023-01-22T09:19:08.621Z,3.10
2023-01-22T09:21:37.924Z,3.10
2023-01-22T09:24:07.694Z,3.10
2023-01-22T09:26:39.353Z,3.10
2023-01-22T09:29:07.868Z,3.10
2023-01-22T09:31:37.863Z,3.10
2023-01-22T09:34:06.630Z,3.10
2023-01-22T09:36:35.775Z,3.10
2023-01-22T09:39:04.480Z,3.10
2023-01-22T09:41:38.795Z,3.10
2023-01-22T09:44:21.795Z,3.10
2023-01-22T09:47:08.204Z,3.10
2023-01-22T09:49:52.757Z,3.10
2023-01-22T09:52:24.939Z,3.10
2023-01-22T09:54:54.227Z,3.10
2023-01-22T09:57:31.759Z,3.10
2023-01-22T10:00:01.332Z,3.20
2023-01-22T10:02:48.782Z,3.20
2023-01-22T10:05:23.483Z,3.20
2023-01-22T10:08:01.022Z,3.20
2023-01-22T10:10:31.060Z,3.30
2023-01-22T10:13:23.449Z,3.30
2023-01-22T10:15:56.480Z,3.30
2023-01-22T10:18:46.727Z,3.30
2023-01-22T10:21:22.370Z,3.30
2023-01-22T10:23:51.672Z,3.30
2023-01-22T10:26:45.039Z,3.30
2023-01-22T10:29:23.661Z,3.40
2023-01-22T10:31:56.943Z,3.50
2023-01-22T10:34:36.454Z,3.50
2023-01-22T10:37:18.610Z,3.42
2023-01-22T10:39:50.976Z,3.42
2023-01-22T10:42:23.416Z,3.50
2023-01-22T10:45:12.404Z,3.50
2023-01-22T10:47:41.101Z,3.50
2023-01-22T10:50:17.389Z,3.50
2023-01-22T10:52:57.419Z,3.50
2023-01-22T10:55:33.122Z,3.50
2023-01-22T10:58:16.675Z,3.50
2023-01-22T11:00:57.013Z,3.50
2023-01-22T11:03:38.704Z,3.40
2023-01-22T11:06:24.844Z,3.40
2023-01-22T11:09:13.705Z,3.40
2023-01-22T11:11:51.197Z,3.40
2023-01-22T11:14:35.495Z,3.40
2023-01-22T11:17:22.571Z,3.40
2023-01-22T11:20:19.077Z,3.38
2023-01-22T11:23:10.324Z,3.30
2023-01-22T11:26:05.743Z,3.32
2023-01-22T11:29:34.943Z,3.38
2023-01-22T11:32:42.957Z,3.40
2023-01-22T11:35:22.968Z,3.40
2023-01-22T11:38:31.072Z,3.40
2023-01-22T11:41:28.385Z,3.40
2023-01-22T11:44:28.191Z,3.40
2023-01-22T11:47:24.731Z,3.40
2023-01-22T11:50:25.163Z,3.40
2023-01-22T11:53:20.072Z,3.30
2023-01-22T11:56:49.397Z,3.30
2023-01-22T11:59:56.262Z,3.30
2023-01-22T12:02:40.261Z,3.30
2023-01-22T12:05:20.141Z,3.30
2023-01-22T12:07:57.753Z,3.30
2023-01-22T12:10:55.206Z,3.30
2023-01-22T12:13:51.853Z,3.28
2023-01-22T12:16:35.999Z,3.22
2023-01-22T12:19:16.875Z,3.20
2023-01-22T12:22:07.478Z,3.20
2023-01-22T12:25:10.257Z,3.18
2023-01-22T12:27:53.896Z,3.20
2023-01-22T12:30:43.812Z,3.20
2023-01-22T12:33:17.449Z,3.20
2023-01-22T12:35:50.574Z,3.20
2023-01-22T12:38:27.764Z,3.20
2023-01-22T12:41:00.032Z,3.20
2023-01-22T12:44:03.540Z,3.20
2023-01-22T12:47:08.472Z,3.20
2023-01-22T12:49:52.313Z,3.20
2023-01-22T12:52:42.693Z,3.20
2023-01-22T12:55:30.775Z,3.10
2023-01-22T12:57:59.889Z,3.10
2023-01-22T13:00:36.558Z,3.10
2023-01-22T13:03:31.735Z,3.10
2023-01-22T13:06:17.312Z,3.10
2023-01-22T13:08:46.819Z,3.10
2023-01-22T13:11:47.865Z,3.10
2023-01-22T13:14:29.015Z,3.10
2023-01-22T13:17:04.406Z,3.10
2023-01-22T13:19:42.535Z,3.10
2023-01-22T13:22:18.412Z,3.10
2023-01-22T13:24:57.148Z,3.10
2023-01-22T13:27:33.668Z,3.10
2023-01-22T13:30:27.126Z,3.10
2023-01-22T13:33:06.152Z,3.00
2023-01-22T13:35:45.304Z,3.00
2023-01-22T13:38:35.368Z,3.00
2023-01-22T13:41:10.246Z,3.00
2023-01-22T13:43:40.684Z,3.00
2023-01-22T13:46:14.370Z,3.00
2023-01-22T13:48:43.741Z,3.00
2023-01-22T13:51:21.898Z,3.00
2023-01-22T13:53:54.832Z,3.00
2023-01-22T13:56:28.020Z,3.00
2023-01-22T13:59:35.239Z,3.00
2023-01-22T14:02:23.919Z,3.00
2023-01-22T14:04:52.553Z,3.00
2023-01-22T14:07:26.738Z,3.00
2023-01-22T14:09:57.088Z,3.00
2023-01-22T14:12:30.718Z,3.00
2023-01-22T14:14:59.278Z,3.00
2023-01-22T14:17:34.427Z,3.00
2023-01-22T14:20:04.551Z,2.98
2023-01-22T14:22:33.230Z,3.00
2023-01-22T14:25:02.438Z,2.92
2023-01-22T14:27:49.748Z,2.90
2023-01-22T14:30:21.984Z,2.90
2023-01-22T14:32:50.808Z,2.88
2023-01-22T14:35:26.634Z,2.88
2023-01-22T14:37:55.926Z,2.90
2023-01-22T14:40:27.168Z,2.82
2023-01-22T14:42:55.695Z,2.80
2023-01-22T14:45:24.321Z,2.80
2023-01-22T14:47:54.444Z,2.80
2023-01-22T14:50:23.910Z,2.80
2023-01-22T14:52:53.417Z,2.80
2023-01-22T14:55:22.411Z,2.80
2023-01-22T14:57:51.411Z,2.80
2023-01-22T15:00:21.150Z,2.80
2023-01-22T15:02:50.250Z,2.80
2023-01-22T15:05:18.798Z,2.80
2023-01-22T15:07:47.888Z,2.80
2023-01-22T15:10:17.303Z,2.80
2023-01-22T15:12:48.722Z,2.80
2023-01-22T15:15:23.307Z,2.80
2023-01-22T15:17:54.615Z,2.80
2023-01-22T15:20:25.681Z,2.80
2023-01-22T15:22:55.062Z,2.80
2023-01-22T15:25:23.770Z,2.80
2023-01-22T15:27:52.435Z,2.80
2023-01-22T15:30:21.493Z,2.80
2023-01-22T15:32:50.331Z,2.86
2023-01-22T15:35:19.113Z,2.86
2023-01-22T15:37:48.644Z,2.88
2023-01-22T15:40:17.824Z,2.82
2023-01-22T15:42:46.606Z,2.80
2023-01-22T15:45:15.493Z,2.80
2023-01-22T15:47:43.976Z,2.80
2023-01-22T15:50:16.250Z,2.80
2023-01-22T15:52:44.828Z,2.80
2023-01-22T15:55:13.720Z,2.80
2023-01-22T15:57:42.513Z,2.82
2023-01-22T16:00:12.614Z,2.80
2023-01-22T16:02:41.598Z,2.80
2023-01-22T16:05:10.338Z,2.80
2023-01-22T16:07:38.896Z,2.80
2023-01-22T16:10:07.790Z,2.80
2023-01-22T16:12:36.374Z,2.80
2023-01-22T16:15:07.734Z,2.80
2023-01-22T16:17:36.306Z,2.88
2023-01-22T16:20:05.911Z,2.88
2023-01-22T16:22:34.393Z,2.90
2023-01-22T16:25:03.083Z,2.90
2023-01-22T16:27:31.877Z,2.86
2023-01-22T16:30:01.071Z,2.86
2023-01-22T16:32:29.861Z,2.90
2023-01-22T16:34:58.547Z,2.80
2023-01-22T16:37:27.238Z,2.80
2023-01-22T16:39:55.967Z,2.80
2023-01-22T16:42:24.839Z,2.80
2023-01-22T16:44:53.701Z,2.80
2023-01-22T16:47:23.211Z,2.80
2023-01-22T16:49:51.895Z,2.80
2023-01-22T16:52:22.949Z,2.80
2023-01-22T16:54:51.852Z,2.80
2023-01-22T16:57:20.841Z,2.80
2023-01-22T16:59:49.619Z,2.86
2023-01-22T17:02:19.576Z,2.88
2023-01-22T17:04:48.423Z,2.90
2023-01-22T17:07:32.401Z,2.90
2023-01-22T17:10:02.714Z,2.90
2023-01-22T17:12:31.383Z,2.88
2023-01-22T17:15:00.171Z,2.90
2023-01-22T17:17:28.859Z,2.90
2023-01-22T17:19:57.641Z,2.90
2023-01-22T17:22:26.944Z,2.90
2023-01-22T17:24:55.834Z,2.90
2023-01-22T17:27:26.168Z,2.90
2023-01-22T17:29:55.048Z,2.90
2023-01-22T17:32:23.637Z,2.90
2023-01-22T17:34:52.627Z,2.90
2023-01-22T17:37:21.519Z,2.90
2023-01-22T17:39:50.869Z,2.90
2023-01-22T17:42:21.309Z,2.88
2023-01-22T17:44:50.049Z,2.80
2023-01-22T17:47:18.634Z,2.80
2023-01-22T17:49:49.007Z,2.80
2023-01-22T17:52:19.580Z,2.80
2023-01-22T17:54:48.371Z,2.80
2023-01-22T17:57:16.980Z,2.80
2023-01-22T17:59:45.843Z,2.80
2023-01-22T18:02:14.434Z,2.80
2023-01-22T18:04:43.120Z,2.80
2023-01-22T18:07:13.037Z,2.80
2023-01-22T18:09:41.724Z,2.80
2023-01-22T18:12:10.509Z,2.80
2023-01-22T18:14:40.690Z,2.80
2023-01-22T18:17:09.315Z,2.80
2023-01-22T18:19:38.107Z,2.80
2023-01-22T18:22:06.893Z,2.80
2023-01-22T18:24:36.830Z,2.80
2023-01-22T18:27:06.929Z,2.80
2023-01-22T18:29:35.521Z,2.80
2023-01-22T18:32:05.000Z,2.80
2023-01-22T18:34:34.218Z,2.80
2023-01-22T18:37:02.802Z,2.80
2023-01-22T18:39:32.132Z,2.80
2023-01-22T18:42:01.657Z,2.80
2023-01-22T18:44:31.018Z,2.80
2023-01-22T18:47:01.953Z,2.80
2023-01-22T18:49:30.684Z,2.80
2023-01-22T18:52:01.277Z,2.80
2023-01-22T18:54:29.964Z,2.80
2023-01-22T18:56:58.854Z,2.80
2023-01-22T18:59:27.444Z,2.80
2023-01-22T19:01:57.691Z,2.80
2023-01-22T19:04:28.195Z,2.80
2023-01-22T19:06:57.406Z,2.80
2023-01-22T19:09:27.216Z,2.80
2023-01-22T19:11:55.958Z,2.80
2023-01-22T19:14:24.894Z,2.80
2023-01-22T19:16:54.514Z,2.80
2023-01-22T19:19:23.367Z,2.80
2023-01-22T19:21:55.403Z,2.84
2023-01-22T19:24:28.318Z,2.80
2023-01-22T19:26:58.235Z,2.80
2023-01-22T19:29:27.532Z,2.80
2023-01-22T19:31:57.608Z,2.82
2023-01-22T19:34:28.926Z,2.84
2023-01-22T19:37:03.343Z,2.82
2023-01-22T19:39:32.602Z,2.80
2023-01-22T19:42:05.281Z,2.88
2023-01-22T19:44:35.679Z,2.90
2023-01-22T19:47:04.639Z,2.90
2023-01-22T19:49:33.435Z,2.90
2023-01-22T19:52:02.328Z,2.90
2023-01-22T19:54:31.555Z,2.90
2023-01-22T19:57:00.523Z,2.90
2023-01-22T19:59:29.202Z,2.90
2023-01-22T20:01:58.088Z,2.90
2023-01-22T20:04:30.918Z,2.90
2023-01-22T20:07:07.711Z,2.90
2023-01-22T20:09:37.586Z,2.90
2023-01-22T20:12:08.901Z,2.90
2023-01-22T20:14:44.002Z,2.90
2023-01-22T20:17:14.174Z,2.90
2023-01-22T20:19:42.979Z,2.96
2023-01-22T20:22:11.832Z,2.94
2023-01-22T20:24:41.880Z,3.00
2023-01-22T20:27:11.280Z,3.00
2023-01-22T20:29:40.941Z,2.98
2023-01-22T20:32:09.992Z,3.00
2023-01-22T20:34:38.774Z,2.90
2023-01-22T20:37:07.354Z,2.90
2023-01-22T20:39:36.144Z,2.90
2023-01-22T20:42:04.937Z,2.90
2023-01-22T20:44:35.258Z,2.90
2023-01-22T20:47:04.362Z,2.90
2023-01-22T20:49:33.656Z,3.00
2023-01-22T20:52:02.346Z,3.00
2023-01-22T20:54:33.147Z,3.00
2023-01-22T20:57:01.868Z,3.00
2023-01-22T20:59:30.665Z,3.00
2023-01-22T21:02:00.004Z,3.00
2023-01-22T21:04:28.849Z,3.00
2023-01-22T21:06:57.435Z,3.00
2023-01-22T21:09:28.276Z,2.96
2023-01-22T21:11:57.571Z,3.00
2023-01-22T21:14:26.274Z,3.00
2023-01-22T21:16:54.750Z,2.98
2023-01-22T21:19:26.172Z,2.94
2023-01-22T21:21:56.109Z,3.00
2023-01-22T21:24:25.101Z,3.00
2023-01-22T21:26:54.199Z,3.00
2023-01-22T21:29:24.145Z,3.00
2023-01-22T21:31:54.333Z,3.00
2023-01-22T21:34:25.899Z,3.00
2023-01-22T21:36:55.405Z,3.00
2023-01-22T21:39:28.434Z,3.00
2023-01-22T21:42:16.306Z,3.00
2023-01-22T21:45:03.955Z,3.00
2023-01-22T21:47:32.727Z,3.00
2023-01-22T21:50:01.335Z,3.00
2023-01-22T21:52:30.024Z,3.00
2023-01-22T21:54:59.529Z,3.00
2023-01-22T21:57:28.543Z,3.00
2023-01-22T21:59:57.099Z,3.00
2023-01-22T22:02:25.940Z,3.00
2023-01-22T22:04:54.887Z,3.00
2023-01-22T22:07:23.678Z,3.00
2023-01-22T22:09:52.564Z,3.00
2023-01-22T22:12:21.359Z,3.00
2023-01-22T22:14:49.940Z,3.02
2023-01-22T22:17:18.936Z,3.00
2023-01-22T22:19:47.623Z,3.02
2023-01-22T22:22:17.021Z,3.00
2023-01-22T22:24:45.606Z,3.00
2023-01-22T22:27:14.300Z,3.00
2023-01-22T22:29:42.916Z,3.00
2023-01-22T22:32:11.465Z,3.00
2023-01-22T22:34:40.056Z,3.00
2023-01-22T22:37:08.740Z,3.00
2023-01-22T22:39:39.165Z,3.00
2023-01-22T22:42:07.956Z,3.02
2023-01-22T22:44:37.890Z,3.00
2023-01-22T22:47:06.452Z,3.08
2023-01-22T22:49:35.240Z,3.04
2023-01-22T22:52:04.233Z,3.00
2023-01-22T22:54:32.719Z,3.00
2023-01-22T22:57:01.404Z,3.00
2023-01-22T22:59:30.095Z,3.00
2023-01-22T23:01:58.777Z,3.00
2023-01-22T23:04:27.496Z,3.00
2023-01-22T23:06:56.149Z,3.00
2023-01-22T23:09:24.943Z,3.00
2023-01-22T23:11:56.289Z,3.00
2023-01-22T23:14:25.589Z,3.00
2023-01-22T23:16:54.109Z,3.00
2023-01-22T23:19:26.622Z,3.00
2023-01-22T23:21:58.799Z,3.00
2023-01-22T23:24:28.016Z,3.00
2023-01-22T23:26:57.318Z,3.00
2023-01-22T23:29:27.115Z,3.00
2023-01-22T23:31:57.659Z,3.00
2023-01-22T23:34:28.813Z,2.98
2023-01-22T23:36:57.929Z,3.00
2023-01-22T23:39:27.119Z,3.00
2023-01-22T23:41:56.325Z,3.00
2023-01-22T23:44:26.266Z,2.98
2023-01-22T23:46:55.039Z,2.98
2023-01-22T23:49:24.313Z,2.98
2023-01-22T23:51:54.020Z,3.00
2023-01-22T23:54:23.166Z,3.00
2023-01-22T23:56:52.020Z,3.00
2023-01-22T23:59:23.831Z,3.00
